Time;durP1;ratioP1;P1;durP2;ratioP2;P2;SDS_P1;SDS_P2;PMS_P1;PMS_P2;Temp;Humidity;BMP_temperature;BMP_pressure;BME280_temperature;BME280_humidity;BME280_pressure;Samples;Min_cycle;Max_cycle;Signal;HPM_P1;HPM_P2
2023/08/09 00:01:04;;;;;;;0.20;0.20;;;;;;;20.25;70.20;101250.28;5011165;28;20064;-68
2023/08/09 00:03:31;;;;;;;0.10;0.10;;;;;;;19.99;71.51;101258.53;5010591;28;20038;-68
2023/08/09 00:05:56;;;;;;;0.20;0.20;;;;;;;20.52;69.53;101248.78;5010733;28;20065;-69
2023/08/09 00:08:21;;;;;;;0.20;0.20;;;;;;;20.36;70.15;101252.72;5010758;28;20514;-68
2023/08/09 00:10:47;;;;;;;0.20;0.20;;;;;;;20.86;67.79;101248.88;5010810;28;20037;-71
2023/08/09 00:13:12;;;;;;;0.20;0.20;;;;;;;20.76;67.90;101251.66;5011025;28;20382;-67
2023/08/09 00:15:38;;;;;;;0.10;0.10;;;;;;;20.65;67.95;101253.66;5010502;28;20050;-67
2023/08/09 00:18:04;;;;;;;0.20;0.20;;;;;;;20.88;66.68;101260.34;5010374;28;20168;-68
2023/08/09 00:20:29;;;;;;;0.20;0.20;;;;;;;21.07;66.27;101257.78;5010442;28;20125;-69
2023/08/09 00:22:55;;;;;;;0.20;0.20;;;;;;;20.65;67.49;101259.13;5010424;28;20044;-68
2023/08/09 00:25:20;;;;;;;0.10;0.10;;;;;;;20.93;66.19;101263.06;5010861;28;20022;-67
2023/08/09 00:27:46;;;;;;;0.10;0.10;;;;;;;20.58;67.83;101263.25;5010880;28;20037;-67
2023/08/09 00:30:12;;;;;;;0.25;0.25;;;;;;;20.44;68.63;101264.97;5010352;28;20045;-69
2023/08/09 00:32:38;;;;;;;0.10;0.10;;;;;;;19.89;70.46;101264.00;5010090;28;20413;-68
2023/08/09 00:35:05;;;;;;;0.20;0.20;;;;;;;20.19;69.20;101267.78;5010476;28;20397;-68
2023/08/09 00:37:31;;;;;;;0.20;0.20;;;;;;;19.59;71.74;101269.53;5010454;28;20029;-68
2023/08/09 00:39:56;;;;;;;0.20;0.20;;;;;;;20.21;69.55;101271.88;5010176;28;20050;-66
2023/08/09 00:42:23;;;;;;;0.10;0.10;;;;;;;20.30;69.09;101270.22;5010195;28;20378;-67
2023/08/09 00:44:49;;;;;;;0.20;0.20;;;;;;;20.31;68.86;101274.56;5010006;28;20040;-69
2023/08/09 00:47:15;;;;;;;0.20;0.20;;;;;;;20.41;68.46;101271.78;5009659;28;20124;-68
2023/08/09 00:49:40;;;;;;;0.20;0.20;;;;;;;20.02;69.96;101268.91;5010433;28;20037;-68
2023/08/09 00:52:06;;;;;;;0.20;0.20;;;;;;;20.35;68.61;101269.34;5009395;28;20045;-67
2023/08/09 00:54:32;;;;;;;0.20;0.20;;;;;;;20.93;65.80;101268.50;5009874;28;20448;-69
2023/08/09 00:56:58;;;;;;;0.10;0.10;;;;;;;20.78;66.19;101271.31;5009876;28;20046;-72
2023/08/09 00:59:23;;;;;;;0.20;0.20;;;;;;;20.81;66.08;101274.31;5009634;28;20533;-71
2023/08/09 01:01:49;;;;;;;0.20;0.20;;;;;;;20.68;66.67;101274.94;5009423;28;20121;-71
2023/08/09 01:04:15;;;;;;;0.20;0.20;;;;;;;20.30;68.60;101280.31;5010292;28;20028;-72
2023/08/09 01:06:48;;;;;;;0.10;0.10;;;;;;;20.28;69.01;101275.13;5009548;28;20759;-72
2023/08/09 01:09:26;;;;;;;0.10;0.10;;;;;;;20.84;66.70;101265.56;5010126;28;20279;-72
2023/08/09 01:12:19;;;;;;;0.20;0.20;;;;;;;21.03;65.91;101275.84;5021896;28;20130;-72
2023/08/09 01:14:50;;;;;;;0.20;0.20;;;;;;;20.56;67.57;101279.91;5027096;28;20044;-71
2023/08/09 01:17:15;;;;;;;0.20;0.20;;;;;;;20.12;68.17;101276.25;5029311;28;20435;-72
2023/08/09 01:19:45;;;;;;;0.30;0.30;;;;;;;20.67;66.62;101272.50;5019245;28;20026;-69
2023/08/09 01:22:15;;;;;;;0.17;0.17;;;;;;;20.86;65.77;101274.28;5009882;28;20034;-72
2023/08/09 01:24:42;;;;;;;0.15;0.15;;;;;;;21.05;65.62;101276.38;5009579;28;20071;-71
2023/08/09 01:27:08;;;;;;;0.20;0.20;;;;;;;21.08;64.11;101284.84;5009767;28;20065;-73
2023/08/09 01:29:37;;;;;;;0.20;0.20;;;;;;;21.00;65.34;101278.03;5009565;28;20386;-72
2023/08/09 01:32:03;;;;;;;0.20;0.20;;;;;;;20.75;66.32;101285.56;5009021;28;20053;-73
2023/08/09 01:34:29;;;;;;;0.20;0.20;;;;;;;20.36;67.69;101282.75;5007832;28;20405;-71
2023/08/09 01:36:58;;;;;;;0.20;0.20;;;;;;;20.48;67.67;101282.44;5009281;28;20129;-72
2023/08/09 01:39:28;;;;;;;0.10;0.10;;;;;;;20.41;67.93;101290.09;5009064;28;20034;-72
2023/08/09 01:41:54;;;;;;;0.17;0.17;;;;;;;20.75;66.95;101289.13;5009326;28;20502;-71
2023/08/09 01:44:20;;;;;;;0.20;0.20;;;;;;;20.37;68.39;101298.03;5009193;28;20034;-71
2023/08/09 01:46:46;;;;;;;0.20;0.20;;;;;;;21.06;66.06;101294.41;5008953;28;20157;-71
2023/08/09 01:49:14;;;;;;;0.20;0.20;;;;;;;20.74;67.37;101290.19;5009667;28;20053;-71
2023/08/09 01:51:39;;;;;;;0.20;0.20;;;;;;;20.84;65.87;101295.59;5009110;28;20390;-72
2023/08/09 01:54:07;;;;;;;0.20;0.20;;;;;;;20.71;66.15;101301.69;5007501;28;20037;-72
2023/08/09 01:56:32;;;;;;;0.13;0.13;;;;;;;20.91;65.60;101307.03;5008185;28;20059;-71
2023/08/09 01:58:58;;;;;;;0.10;0.10;;;;;;;21.36;64.24;101299.66;5009206;28;20112;-73
2023/08/09 02:01:24;;;;;;;0.15;0.15;;;;;;;21.10;65.04;101304.50;5009470;28;20030;-73
2023/08/09 02:03:49;;;;;;;0.20;0.20;;;;;;;21.10;65.33;101306.41;5012410;28;20048;-72
2023/08/09 02:06:15;;;;;;;0.13;0.13;;;;;;;21.18;64.47;101303.06;5012933;28;20044;-72
2023/08/09 02:08:42;;;;;;;0.17;0.17;;;;;;;20.28;67.97;101310.63;5029857;28;20501;-73
2023/08/09 02:11:07;;;;;;;0.15;0.15;;;;;;;20.84;66.51;101316.63;5032966;28;20112;-73
2023/08/09 02:13:32;;;;;;;0.20;0.20;;;;;;;20.59;66.72;101316.78;5033530;28;20040;-72
2023/08/09 02:15:58;;;;;;;0.20;0.20;;;;;;;20.47;67.68;101314.38;5022419;28;20567;-74
2023/08/09 02:18:23;;;;;;;0.20;0.20;;;;;;;20.01;68.79;101316.38;5012749;28;20084;-72
2023/08/09 02:20:49;;;;;;;0.10;0.10;;;;;;;20.12;69.21;101315.28;5012940;28;20038;-72
2023/08/09 02:23:14;;;;;;;0.10;0.10;;;;;;;20.19;68.24;101317.72;5012867;28;20045;-72
2023/08/09 02:25:40;;;;;;;0.20;0.20;;;;;;;20.27;68.00;101319.06;5013123;28;20034;-71
2023/08/09 02:28:05;;;;;;;0.20;0.20;;;;;;;20.15;68.99;101324.78;5010988;28;20045;-71
2023/08/09 02:30:31;;;;;;;0.10;0.10;;;;;;;20.85;66.23;101330.00;5012795;28;20038;-72
2023/08/09 02:32:56;;;;;;;0.20;0.20;;;;;;;20.12;68.35;101322.63;5012540;28;20046;-71
2023/08/09 02:35:22;;;;;;;0.10;0.10;;;;;;;20.81;66.07;101322.69;5012482;28;20038;-71
2023/08/09 02:37:47;;;;;;;0.20;0.20;;;;;;;20.51;66.83;101331.00;5012651;28;20041;-71
2023/08/09 02:40:12;;;;;;;0.20;0.20;;;;;;;20.48;67.92;101328.84;5012945;28;20477;-72
2023/08/09 02:42:39;;;;;;;0.20;0.20;;;;;;;20.52;67.40;101332.66;5012478;28;20038;-73
2023/08/09 02:45:05;;;;;;;0.20;0.20;;;;;;;20.24;68.42;101325.91;5012333;28;20069;-72
2023/08/09 02:47:31;;;;;;;0.20;0.20;;;;;;;19.84;70.13;101332.22;5011877;28;20042;-71
2023/08/09 02:49:56;;;;;;;0.20;0.20;;;;;;;20.33;67.95;101337.88;5012199;28;20032;-73
2023/08/09 02:52:22;;;;;;;0.20;0.20;;;;;;;20.23;69.46;101332.44;5012867;28;20091;-72
2023/08/09 02:54:47;;;;;;;0.13;0.13;;;;;;;20.17;68.65;101345.25;5012664;28;20425;-72
2023/08/09 02:57:13;;;;;;;0.20;0.20;;;;;;;20.30;68.22;101351.28;5012253;28;20053;-72
2023/08/09 02:59:39;;;;;;;0.10;0.10;;;;;;;19.97;69.78;101344.47;5010758;28;20537;-72
2023/08/09 03:02:05;;;;;;;0.20;0.20;;;;;;;19.16;74.72;101352.59;5011088;28;20041;-72
2023/08/09 03:04:31;;;;;;;0.20;0.20;;;;;;;19.69;71.65;101343.16;5012053;28;20037;-72
2023/08/09 03:06:57;;;;;;;0.10;0.10;;;;;;;19.77;71.59;101352.69;5011804;28;20033;-71
2023/08/09 03:09:22;;;;;;;0.10;0.10;;;;;;;20.17;68.83;101349.91;5011970;28;20507;-73
2023/08/09 03:11:48;;;;;;;0.30;0.30;;;;;;;19.97;70.22;101349.94;5010437;28;20034;-72
2023/08/09 03:14:13;;;;;;;0.10;0.10;;;;;;;20.45;68.87;101348.50;5010858;28;20042;-72
2023/08/09 03:16:41;;;;;;;0.20;0.20;;;;;;;20.86;67.16;101358.16;5012623;28;20034;-72
2023/08/09 03:19:06;;;;;;;0.30;0.30;;;;;;;20.89;66.93;101357.63;5011986;28;20041;-71
2023/08/09 03:21:32;;;;;;;0.20;0.20;;;;;;;20.90;67.24;101370.97;5011551;28;20057;-74
2023/08/09 03:23:57;;;;;;;0.10;0.10;;;;;;;20.02;70.13;101363.56;5011705;28;20092;-71
2023/08/09 03:26:23;;;;;;;0.10;0.10;;;;;;;20.50;68.95;101370.34;5011687;28;20041;-72
2023/08/09 03:28:48;;;;;;;0.17;0.17;;;;;;;20.34;69.00;101368.75;5011361;28;20041;-72
2023/08/09 03:31:14;;;;;;;0.20;0.20;;;;;;;20.48;67.87;101367.88;5011905;28;20037;-72
2023/08/09 03:33:39;;;;;;;0.20;0.20;;;;;;;20.44;68.14;101372.25;5011446;28;20037;-72
2023/08/09 03:36:05;;;;;;;0.20;0.20;;;;;;;20.02;69.62;101367.13;5011510;28;20046;-73
2023/08/09 03:38:31;;;;;;;0.10;0.10;;;;;;;20.31;68.66;101382.91;5011413;28;20054;-72
2023/08/09 03:40:56;;;;;;;0.20;0.20;;;;;;;19.66;71.45;101373.69;5011406;28;20131;-73
2023/08/09 03:43:22;;;;;;;0.20;0.20;;;;;;;19.91;70.62;101384.59;5011422;28;20029;-72
2023/08/09 03:45:47;;;;;;;0.20;0.20;;;;;;;19.55;71.75;101388.41;5009800;28;20559;-72
2023/08/09 03:48:13;;;;;;;0.10;0.10;;;;;;;20.29;68.76;101385.94;5010596;28;20046;-73
2023/08/09 03:50:38;;;;;;;0.10;0.10;;;;;;;19.54;72.13;101391.38;5011269;28;20509;-73
2023/08/09 03:53:04;;;;;;;0.20;0.20;;;;;;;19.65;71.32;101388.41;5009759;28;20104;-72
2023/08/09 03:55:29;;;;;;;0.10;0.10;;;;;;;19.33;72.62;101387.81;5011374;28;20022;-73
2023/08/09 03:57:54;;;;;;;0.20;0.20;;;;;;;19.84;71.21;101381.31;5010118;28;20030;-72
2023/08/09 04:00:22;;;;;;;0.15;0.15;;;;;;;20.19;68.97;101394.13;5020738;28;20038;-74
2023/08/09 04:02:48;;;;;;;0.10;0.10;;;;;;;19.79;70.98;101394.94;5008543;28;20034;-71
2023/08/09 04:05:16;;;;;;;0.20;0.20;;;;;;;20.32;69.54;101395.50;5010096;28;20417;-73
2023/08/09 04:07:42;;;;;;;0.20;0.20;;;;;;;19.52;71.93;101404.50;5010110;28;20088;-73
2023/08/09 04:10:08;;;;;;;0.10;0.10;;;;;;;20.31;69.21;101412.94;5004128;28;20022;-72
2023/08/09 04:12:36;;;;;;;0.20;0.20;;;;;;;20.47;67.79;101415.38;5003733;28;20042;-73
2023/08/09 04:15:04;;;;;;;0.10;0.10;;;;;;;19.77;70.69;101408.03;5009959;28;20030;-73
2023/08/09 04:17:31;;;;;;;0.20;0.20;;;;;;;19.67;70.95;101418.13;5017029;28;20041;-71
2023/08/09 04:19:57;;;;;;;0.20;0.20;;;;;;;19.34;73.39;101411.25;5029047;28;20053;-73
2023/08/09 04:22:22;;;;;;;0.10;0.10;;;;;;;19.74;71.94;101416.78;5030751;28;20033;-72
2023/08/09 04:24:47;;;;;;;0.10;0.10;;;;;;;19.92;70.93;101418.16;5014550;28;20033;-73
2023/08/09 04:27:13;;;;;;;0.20;0.20;;;;;;;20.67;67.75;101417.25;5009614;28;20382;-72
2023/08/09 04:29:38;;;;;;;0.20;0.20;;;;;;;20.45;66.97;101422.22;5010443;28;20052;-73
2023/08/09 04:32:04;;;;;;;0.20;0.20;;;;;;;20.82;66.79;101425.38;5008839;28;20682;-73
2023/08/09 04:34:29;;;;;;;0.20;0.20;;;;;;;19.81;70.78;101428.22;5010695;28;20053;-74
2023/08/09 04:36:54;;;;;;;0.20;0.20;;;;;;;19.68;71.46;101433.41;5010308;28;20069;-72
2023/08/09 04:39:20;;;;;;;0.20;0.20;;;;;;;19.98;70.84;101436.16;5009178;28;20037;-72
2023/08/09 04:41:45;;;;;;;0.13;0.13;;;;;;;20.39;69.00;101432.34;5010447;28;20041;-72
2023/08/09 04:44:11;;;;;;;0.20;0.20;;;;;;;19.95;69.92;101442.16;5009823;28;20101;-71
2023/08/09 04:46:36;;;;;;;0.20;0.20;;;;;;;20.11;69.92;101433.69;5010439;28;20480;-74
2023/08/09 04:49:03;;;;;;;0.20;0.20;;;;;;;19.95;70.36;101440.25;5009507;28;20062;-72
2023/08/09 04:51:29;;;;;;;0.10;0.10;;;;;;;20.94;67.24;101442.28;5009790;28;20082;-72
2023/08/09 04:53:55;;;;;;;0.13;0.13;;;;;;;20.48;69.38;101451.72;5010038;28;20176;-72
2023/08/09 04:56:20;;;;;;;0.20;0.20;;;;;;;19.42;72.00;101450.81;5017656;28;20125;-73
2023/08/09 04:58:46;;;;;;;0.20;0.20;;;;;;;19.93;71.11;101456.06;5029721;28;20104;-72
2023/08/09 05:01:11;;;;;;;0.20;0.20;;;;;;;20.57;68.60;101458.22;5030181;28;20030;-72
2023/08/09 05:03:37;;;;;;;0.20;0.20;;;;;;;20.68;68.56;101463.41;5028130;28;20422;-73
2023/08/09 05:06:03;;;;;;;0.20;0.20;;;;;;;19.39;73.29;101459.50;5009588;28;20046;-72
2023/08/09 05:08:28;;;;;;;0.10;0.10;;;;;;;20.04;71.07;101463.19;5009777;28;20046;-72
2023/08/09 05:10:54;;;;;;;0.20;0.20;;;;;;;20.73;68.66;101460.66;5009059;28;20022;-72
2023/08/09 05:13:19;;;;;;;0.20;0.20;;;;;;;20.33;70.37;101459.91;5009808;28;20041;-72
2023/08/09 05:15:45;;;;;;;0.20;0.20;;;;;;;19.77;73.67;101464.50;5008974;28;20402;-74
2023/08/09 05:18:12;;;;;;;0.10;0.10;;;;;;;20.36;70.68;101471.13;5009042;28;20211;-73
2023/08/09 05:20:37;;;;;;;0.10;0.10;;;;;;;19.98;72.18;101471.63;5008880;28;20113;-71
2023/08/09 05:23:03;;;;;;;0.20;0.20;;;;;;;20.85;68.72;101476.75;5009068;28;20180;-72
2023/08/09 05:25:29;;;;;;;0.10;0.10;;;;;;;20.43;72.19;101462.63;5009075;28;20064;-70
2023/08/09 05:27:55;;;;;;;0.20;0.20;;;;;;;21.18;68.20;101476.13;5008812;28;20427;-72
2023/08/09 05:30:22;;;;;;;0.20;0.20;;;;;;;19.88;74.28;101477.91;5008852;28;20042;-72
2023/08/09 05:32:48;;;;;;;0.10;0.10;;;;;;;20.47;71.24;101471.91;5009046;28;20030;-72
2023/08/09 05:35:13;;;;;;;0.20;0.20;;;;;;;20.57;70.82;101478.19;5007942;28;20049;-70
2023/08/09 05:37:39;;;;;;;0.20;0.20;;;;;;;20.38;71.18;101485.31;5009024;28;20037;-73
2023/08/09 05:40:09;;;;;;;0.20;0.20;;;;;;;20.76;70.70;101483.84;5008935;28;20038;-73
2023/08/09 05:42:35;;;;;;;0.20;0.20;;;;;;;21.12;70.16;101482.69;5006727;28;20172;-73
2023/08/09 05:45:01;;;;;;;0.17;0.17;;;;;;;20.59;72.25;101488.81;5011867;28;20121;-73
2023/08/09 05:47:29;;;;;;;0.20;0.20;;;;;;;20.96;70.44;101484.63;5017617;28;20435;-72
2023/08/09 05:49:54;;;;;;;0.20;0.20;;;;;;;21.56;68.48;101488.25;5009168;28;20159;-72
2023/08/09 05:52:20;;;;;;;0.20;0.20;;;;;;;21.87;66.91;101497.09;5011524;28;20204;-74
2023/08/09 05:54:46;;;;;;;0.10;0.10;;;;;;;22.44;65.52;101492.53;5008577;28;20041;-72
2023/08/09 05:57:12;;;;;;;0.10;0.10;;;;;;;22.39;65.77;101486.25;5009037;28;20045;-72
2023/08/09 05:59:39;;;;;;;0.10;0.10;;;;;;;22.53;65.85;101496.28;5009271;28;20038;-73
2023/08/09 06:02:06;;;;;;;0.10;0.10;;;;;;;22.08;66.63;101501.31;5009214;28;20038;-72
2023/08/09 06:04:32;;;;;;;0.10;0.10;;;;;;;22.14;66.60;101508.38;5009268;28;20036;-72
2023/08/09 06:06:57;;;;;;;0.10;0.10;;;;;;;21.43;69.10;101519.75;5009247;28;20042;-73
2023/08/09 06:09:23;;;;;;;0.10;0.10;;;;;;;21.11;71.66;101526.72;5008648;28;20033;-73
2023/08/09 06:11:49;;;;;;;0.25;0.25;;;;;;;21.67;69.24;101523.47;5008825;28;20386;-73
2023/08/09 06:14:14;;;;;;;0.20;0.20;;;;;;;21.66;68.97;101524.53;5008574;28;20045;-72
2023/08/09 06:16:40;;;;;;;0.20;0.20;;;;;;;21.88;68.16;101523.38;5009325;28;20092;-73
2023/08/09 06:19:05;;;;;;;0.10;0.10;;;;;;;22.06;68.67;101531.72;5008724;28;20032;-72
2023/08/09 06:21:31;;;;;;;0.15;0.15;;;;;;;22.28;67.52;101534.00;5008679;28;20088;-72
2023/08/09 06:23:56;;;;;;;0.10;0.10;;;;;;;22.11;68.73;101539.09;5009121;28;20061;-73
2023/08/09 06:26:21;;;;;;;0.10;0.10;;;;;;;22.12;68.22;101538.78;5009038;28;20038;-73
2023/08/09 06:28:48;;;;;;;0.10;0.10;;;;;;;22.05;68.24;101537.47;5008586;28;20034;-73
2023/08/09 06:31:15;;;;;;;0.10;0.10;;;;;;;21.13;71.27;101530.00;5009103;28;20093;-72
2023/08/09 06:33:42;;;;;;;0.20;0.20;;;;;;;21.68;69.94;101536.03;5008650;28;20038;-74
2023/08/09 06:36:11;;;;;;;0.10;0.10;;;;;;;21.28;71.20;101538.94;5008716;28;20038;-73
2023/08/09 06:38:36;;;;;;;0.10;0.10;;;;;;;22.50;67.77;101539.88;5008651;28;20062;-72
2023/08/09 06:41:02;;;;;;;0.10;0.10;;;;;;;22.74;66.25;101546.25;5008648;28;20120;-72
2023/08/09 06:43:29;;;;;;;0.10;0.10;;;;;;;22.96;66.28;101546.56;5008658;28;20018;-73
2023/08/09 06:45:57;;;;;;;0.10;0.10;;;;;;;22.45;67.83;101553.59;5008354;28;20041;-73
2023/08/09 06:48:23;;;;;;;0.10;0.10;;;;;;;21.90;69.19;101560.28;5012603;28;20034;-72
2023/08/09 06:50:48;;;;;;;0.10;0.10;;;;;;;22.03;69.53;101567.06;5031292;28;20037;-72
2023/08/09 06:53:14;;;;;;;0.10;0.10;;;;;;;22.75;66.42;101567.06;5032083;28;20037;-73
2023/08/09 06:55:39;;;;;;;0.10;0.10;;;;;;;21.79;70.33;101573.19;5031006;28;20025;-73
2023/08/09 06:58:04;;;;;;;0.10;0.10;;;;;;;22.12;69.56;101570.81;5014306;28;20029;-74
2023/08/09 07:00:30;;;;;;;0.10;0.10;;;;;;;22.89;66.70;101578.16;5012090;28;20038;-73
2023/08/09 07:02:55;;;;;;;0.10;0.10;;;;;;;21.04;71.54;101570.72;5043581;28;20107;-72
2023/08/09 07:05:21;;;;;;;0.10;0.10;;;;;;;21.98;69.75;101567.06;5011882;28;20042;-73
2023/08/09 07:07:51;;;;;;;0.10;0.10;;;;;;;22.27;68.45;101568.78;5010377;28;20037;-71
2023/08/09 07:10:18;;;;;;;0.10;0.10;;;;;;;22.40;67.90;101570.06;5012580;28;20033;-72
2023/08/09 07:12:44;;;;;;;0.10;0.10;;;;;;;21.76;70.62;101568.25;5011919;28;20141;-73
2023/08/09 07:15:11;;;;;;;0.03;0.03;;;;;;;22.03;69.91;101564.31;5011841;28;20425;-73
2023/08/09 07:17:37;;;;;;;0.10;0.10;;;;;;;22.35;69.99;101567.34;5011676;28;20038;-72
2023/08/09 07:20:09;;;;;;;0.10;0.10;;;;;;;22.12;70.09;101568.91;5011538;28;20045;-71
2023/08/09 07:22:35;;;;;;;0.10;0.10;;;;;;;21.99;70.88;101569.56;5012263;28;20029;-72
2023/08/09 07:25:01;;;;;;;0.08;0.08;;;;;;;22.06;70.02;101567.31;5011665;28;20042;-72
2023/08/09 07:27:26;;;;;;;0.10;0.10;;;;;;;22.34;68.69;101572.03;5011303;28;20042;-70
2023/08/09 07:29:53;;;;;;;0.10;0.10;;;;;;;22.87;66.91;101562.00;5011723;28;20042;-71
2023/08/09 07:32:18;;;;;;;0.10;0.10;;;;;;;23.09;65.86;101565.06;5011477;28;20038;-72
2023/08/09 07:34:43;;;;;;;0.10;0.10;;;;;;;22.78;67.57;101580.16;5011079;28;20421;-71
2023/08/09 07:37:09;;;;;;;0.10;0.10;;;;;;;22.63;68.60;101583.06;5010251;28;20026;-71
2023/08/09 07:39:34;;;;;;;0.10;0.10;;;;;;;22.95;66.70;101580.56;5011388;28;20375;-71
2023/08/09 07:42:00;;;;;;;0.10;0.10;;;;;;;22.45;68.92;101578.25;5011560;28;20096;-72
2023/08/09 07:44:25;;;;;;;0.00;0.00;;;;;;;23.06;66.84;101573.88;5013525;28;20061;-72
2023/08/09 07:46:51;;;;;;;0.08;0.08;;;;;;;23.05;66.57;101582.41;5019181;28;20539;-71
2023/08/09 07:49:16;;;;;;;0.10;0.10;;;;;;;23.00;67.54;101586.00;5010742;28;20049;-71
2023/08/09 07:51:42;;;;;;;0.03;0.03;;;;;;;23.17;67.12;101585.56;5019048;28;20509;-71
2023/08/09 07:54:07;;;;;;;0.10;0.10;;;;;;;23.30;68.09;101587.59;5020002;28;20065;-71
2023/08/09 07:56:34;;;;;;;0.00;0.00;;;;;;;23.37;66.13;101582.63;5014810;28;20390;-71
2023/08/09 07:58:59;;;;;;;0.10;0.10;;;;;;;22.88;67.24;101590.25;5011825;28;20014;-71
2023/08/09 08:01:25;;;;;;;0.10;0.10;;;;;;;23.41;66.22;101587.22;5021201;28;20032;-70
2023/08/09 08:03:51;;;;;;;0.00;0.00;;;;;;;22.79;67.16;101589.22;5010840;28;20061;-71
2023/08/09 08:06:17;;;;;;;0.10;0.10;;;;;;;24.09;62.93;101581.41;5017050;28;20086;-72
2023/08/09 08:08:45;;;;;;;0.10;0.10;;;;;;;24.08;62.06;101583.34;5015640;28;20049;-71
2023/08/09 08:11:10;;;;;;;0.00;0.00;;;;;;;24.10;63.05;101581.09;5011761;28;21222;-71
2023/08/09 08:13:36;;;;;;;0.00;0.00;;;;;;;24.20;62.09;101591.13;5017156;28;20470;-70
2023/08/09 08:16:04;;;;;;;0.10;0.10;;;;;;;24.20;61.85;101597.44;5019591;28;20034;-71
2023/08/09 08:18:30;;;;;;;0.10;0.10;;;;;;;23.60;64.97;101594.69;5019349;28;20029;-71
2023/08/09 08:20:55;;;;;;;0.10;0.10;;;;;;;23.70;63.56;101597.31;5015445;28;20405;-71
2023/08/09 08:23:21;;;;;;;0.05;0.05;;;;;;;23.96;60.95;101606.84;5012659;28;20025;-71
2023/08/09 08:25:46;;;;;;;0.00;0.00;;;;;;;24.73;59.31;101594.41;5018550;28;20552;-71
2023/08/09 08:28:12;;;;;;;0.10;0.10;;;;;;;24.15;61.69;101604.94;5010271;28;20038;-71
2023/08/09 08:30:38;;;;;;;0.10;0.10;;;;;;;23.34;61.58;101619.69;5017436;28;20509;-71
2023/08/09 08:33:04;;;;;;;0.05;0.05;;;;;;;23.72;60.58;101617.03;5014368;28;20049;-70
2023/08/09 08:35:33;;;;;;;0.00;0.00;;;;;;;24.25;56.92;101622.06;5013449;28;20579;-71
2023/08/09 08:37:59;;;;;;;0.10;0.10;;;;;;;23.73;59.69;101616.75;5016086;28;20013;-71
2023/08/09 08:40:25;;;;;;;0.03;0.03;;;;;;;24.11;57.89;101632.19;5010878;28;20496;-70
2023/08/09 08:42:51;;;;;;;0.10;0.10;;;;;;;24.79;54.06;101628.97;5010611;28;20068;-70
2023/08/09 08:45:19;;;;;;;0.03;0.03;;;;;;;24.69;53.62;101637.34;5008277;28;20029;-69
2023/08/09 08:47:46;;;;;;;0.00;0.00;;;;;;;24.64;51.63;101648.44;5009807;28;20620;-70
2023/08/09 08:50:13;;;;;;;0.10;0.10;;;;;;;24.91;54.19;101630.13;5007545;28;20501;-68
2023/08/09 08:52:42;;;;;;;0.00;0.00;;;;;;;24.23;54.52;101631.75;5007731;28;20534;-70
2023/08/09 08:55:09;;;;;;;0.00;0.00;;;;;;;25.21;50.44;101634.28;5009662;28;20061;-69
2023/08/09 08:57:35;;;;;;;0.03;0.03;;;;;;;24.45;51.67;101636.66;5016871;28;20026;-70
2023/08/09 09:00:08;;;;;;;0.00;0.00;;;;;;;24.90;49.91;101650.47;5014362;28;20029;-71
2023/08/09 09:02:36;;;;;;;0.00;0.00;;;;;;;24.46;52.83;101636.34;5013579;28;20033;-71
2023/08/09 09:05:02;;;;;;;0.00;0.00;;;;;;;24.53;52.65;101645.00;5017417;28;20033;-70
2023/08/09 09:07:29;;;;;;;0.00;0.00;;;;;;;24.74;52.92;101646.38;5008412;28;20401;-69
2023/08/09 09:10:03;;;;;;;0.00;0.00;;;;;;;24.28;49.89;101648.97;5019215;28;20590;-69
2023/08/09 09:12:29;;;;;;;0.00;0.00;;;;;;;25.37;48.88;101649.38;5011528;28;20084;-68
2023/08/09 09:14:54;;;;;;;0.00;0.00;;;;;;;25.39;46.85;101647.13;5013569;28;20026;-69
2023/08/09 09:17:20;;;;;;;0.00;0.00;;;;;;;24.99;45.72;101639.63;5010300;28;20041;-70
2023/08/09 09:19:46;;;;;;;0.00;0.00;;;;;;;25.30;45.43;101643.44;5009124;28;20042;-72
2023/08/09 09:22:34;;;;;;;0.00;0.00;;;;;;;25.86;44.21;101645.94;5009341;28;20049;-71
2023/08/09 09:25:00;;;;;;;0.00;0.00;;;;;;;25.50;42.99;101647.78;5008456;28;20037;-71
2023/08/09 09:27:31;;;;;;;0.00;0.00;;;;;;;26.20;42.87;101651.03;5015967;28;20034;-71
2023/08/09 09:30:12;;;;;;;0.00;0.00;;;;;;;26.67;42.71;101654.00;5014030;28;20277;-72
2023/08/09 09:32:42;;;;;;;0.00;0.00;;;;;;;26.74;44.26;101656.38;5013407;28;20033;-70
2023/08/09 09:35:08;;;;;;;0.00;0.00;;;;;;;25.53;43.76;101656.25;5018814;28;20049;-71
2023/08/09 09:37:35;;;;;;;0.00;0.00;;;;;;;26.03;45.63;101657.13;5011852;28;20038;-71
2023/08/09 09:40:01;;;;;;;0.00;0.00;;;;;;;26.34;44.33;101655.34;5008915;28;20038;-71
2023/08/09 09:42:33;;;;;;;0.00;0.00;;;;;;;26.98;40.01;101648.59;5015867;28;20385;-71
2023/08/09 09:45:07;;;;;;;0.00;0.00;;;;;;;26.69;42.78;101649.00;5009425;28;20132;-69
2023/08/09 09:47:34;;;;;;;0.00;0.00;;;;;;;26.35;41.87;101647.91;5010928;28;20049;-70
2023/08/09 09:49:59;;;;;;;0.00;0.00;;;;;;;26.10;40.98;101647.34;5001893;28;20050;-72
2023/08/09 09:52:28;;;;;;;0.00;0.00;;;;;;;26.07;41.58;101639.72;5009021;28;20048;-70
2023/08/09 09:54:56;;;;;;;0.00;0.00;;;;;;;27.10;40.53;101645.25;5018113;28;20505;-71
2023/08/09 09:57:21;;;;;;;0.00;0.00;;;;;;;26.15;43.46;101638.16;5011173;28;20034;-70
2023/08/09 09:59:47;;;;;;;0.00;0.00;;;;;;;27.30;40.00;101645.50;5011411;28;20029;-71
2023/08/09 10:02:13;;;;;;;0.00;0.00;;;;;;;27.37;40.67;101643.13;5016833;28;20041;-70
2023/08/09 10:04:40;;;;;;;0.00;0.00;;;;;;;27.54;41.17;101643.19;5006476;28;20389;-70
2023/08/09 10:07:07;;;;;;;0.03;0.03;;;;;;;26.23;40.73;101642.13;5018445;28;20493;-72
2023/08/09 10:09:34;;;;;;;0.00;0.00;;;;;;;27.08;39.45;101641.97;5010995;28;20898;-70
2023/08/09 10:12:00;;;;;;;0.00;0.00;;;;;;;27.40;36.90;101644.47;5012801;28;20112;-72
2023/08/09 10:14:29;;;;;;;0.00;0.00;;;;;;;27.03;36.22;101633.84;5018076;28;20581;-71
2023/08/09 10:16:55;;;;;;;0.00;0.00;;;;;;;27.30;33.92;101641.94;5016677;28;20529;-70
2023/08/09 10:19:23;;;;;;;0.00;0.00;;;;;;;27.59;33.61;101648.59;5024737;28;20021;-72
2023/08/09 10:21:52;;;;;;;0.00;0.00;;;;;;;26.81;35.62;101641.00;5007241;28;20060;-70
2023/08/09 10:24:18;;;;;;;0.00;0.00;;;;;;;28.04;35.93;101640.13;5011408;28;20112;-71
2023/08/09 10:26:49;;;;;;;0.00;0.00;;;;;;;27.77;37.62;101635.66;5012438;28;20049;-70
2023/08/09 10:29:19;;;;;;;0.00;0.00;;;;;;;27.61;39.69;101643.56;5005214;28;20960;-70
2023/08/09 10:31:55;;;;;;;0.00;0.00;;;;;;;28.30;37.46;101640.97;5014451;28;20029;-70
2023/08/09 10:34:41;;;;;;;0.00;0.00;;;;;;;27.15;38.40;101650.63;5027995;28;20049;-70
2023/08/09 10:37:09;;;;;;;0.00;0.00;;;;;;;27.78;36.96;101642.78;5010050;28;20054;-71
2023/08/09 10:39:35;;;;;;;0.00;0.00;;;;;;;27.50;37.48;101644.16;5023665;28;20037;-70
2023/08/09 10:42:13;;;;;;;0.00;0.00;;;;;;;28.83;37.45;101637.88;5008579;28;20458;-71
2023/08/09 10:44:43;;;;;;;0.00;0.00;;;;;;;28.29;37.85;101642.09;5008281;28;20273;-70
2023/08/09 10:47:12;;;;;;;0.00;0.00;;;;;;;27.45;39.47;101647.88;5020601;28;20153;-69
2023/08/09 10:49:56;;;;;;;0.00;0.00;;;;;;;27.74;38.80;101641.81;5007715;28;20057;-70
2023/08/09 10:52:36;;;;;;;0.00;0.00;;;;;;;27.91;37.47;101633.56;5016674;28;20038;-71
2023/08/09 10:55:20;;;;;;;0.00;0.00;;;;;;;28.10;37.25;101636.88;5007465;28;20037;-70
2023/08/09 10:57:49;;;;;;;0.00;0.00;;;;;;;28.15;37.36;101646.94;5025141;28;20033;-69
2023/08/09 11:00:16;;;;;;;0.00;0.00;;;;;;;28.71;36.07;101648.78;5016993;28;20061;-69
2023/08/09 11:02:52;;;;;;;0.00;0.00;;;;;;;27.81;37.14;101655.97;5021607;28;20029;-70
2023/08/09 11:05:18;;;;;;;0.00;0.00;;;;;;;28.36;36.55;101651.53;5008224;28;20050;-69
2023/08/09 11:07:47;;;;;;;0.00;0.00;;;;;;;28.06;38.27;101660.78;5008514;28;20514;-70
2023/08/09 11:10:12;;;;;;;0.00;0.00;;;;;;;27.75;39.33;101657.25;5008161;28;20108;-70
2023/08/09 11:12:42;;;;;;;0.00;0.00;;;;;;;27.48;39.69;101661.03;5010124;28;20045;-68
2023/08/09 11:15:09;;;;;;;0.00;0.00;;;;;;;27.59;39.71;101656.06;5024349;28;20088;-69
2023/08/09 11:17:35;;;;;;;0.00;0.00;;;;;;;28.79;39.16;101647.97;5019309;28;20560;-70
2023/08/09 11:20:01;;;;;;;0.00;0.00;;;;;;;28.30;40.90;101661.16;5007200;28;20552;-70
2023/08/09 11:22:26;;;;;;;0.00;0.00;;;;;;;28.12;40.66;101665.03;5008475;28;20120;-69